メインページ
METAR-TAF:

METAR-TAF

空港 :

ヴィエンチャン, ラオス

ワットタイ国際空港

緯度: 17-57N, 経度: 102-34E, 海抜: 171m

現時点の気象観測

当レポートは21分前の06:00(UTC)に作成
の風 2kt
気温 30°C
湿度 59%
気圧 1012 hPa
視程: 7000m
高度2000ftの雲は散在している
高度5000ftの雲はほとんどない

METAR: VLVT 140600Z 36002KT 7000 SCT020 FEW050 30/21 Q1012 NOSIG

時間: 13:21 (06:21 UTC)

予報

当レポートは1時間21分前の05:00(UTC)に作成
予報は14日の 06時(UTC)から 15日の 06時(UTC)まで有効
の風 6kt
視程: 7000m
高度2000ftの雲は散在している
高度5000ftの雲はほとんどない
14日の 14時(UTC)から 14日の 20時(UTC)まで一時的に
視程: 4000m
高度5000ftの雲は散在している

TAF: VLVT 140500Z 1406/1506 09006KT 7000 SCT020 FEW050 TEMPO 1414/1420 4000 BR SCT050

4,000以上の空港の気象観測と天気予報(METAR報とTAF報)

利用可能な観測所は地図上に黄色い丸と赤い丸で示す。

丸の上にカーソルを重ねると観測所名を参照できる。

次にクリックすると気象観測と天気予報を参照できる。

マップの切り替え:黒色「×」印の緑ボタンをクリックして拡大、「-」印の緑ボタンをクリックして縮小、緑色の三角印をクリックして隣りの地図に切り替え


METAR-TAF: